createdAt,value
2016-04-20T11:45:39.251Z,1022.97
2016-04-20T11:46:38.878Z,1022.96
2016-04-20T11:47:38.817Z,1022.91
2016-04-20T11:48:38.884Z,1022.96
2016-04-20T11:49:38.761Z,1022.9
2016-04-20T11:50:38.764Z,1022.92
2016-04-20T11:51:38.704Z,1022.9
2016-04-20T11:52:38.706Z,1022.88
2016-04-20T11:53:38.663Z,1022.91
2016-04-20T11:54:38.666Z,1022.96
2016-04-20T11:55:38.605Z,1022.91
2016-04-20T11:56:38.624Z,1022.91
2016-04-20T11:57:38.626Z,1022.84
2016-04-20T11:58:38.551Z,1022.85
2016-04-20T11:59:38.586Z,1022.82
2016-04-20T12:00:38.775Z,1022.81
2016-04-20T12:01:38.497Z,1022.83
2016-04-20T12:02:38.468Z,1022.81
2016-04-20T12:03:38.470Z,1022.85
2016-04-20T12:04:38.410Z,1022.84
2016-04-20T12:05:38.414Z,1022.8
2016-04-20T12:06:38.354Z,1022.82
2016-04-20T12:07:38.372Z,1022.79
2016-04-20T12:08:38.343Z,1022.78
2016-04-20T12:09:38.315Z,1022.79
2016-04-20T12:10:38.270Z,1022.76
2016-04-20T12:11:38.242Z,1022.76
2016-04-20T12:12:38.590Z,1022.82
2016-04-20T12:13:38.201Z,1022.84
2016-04-20T12:14:38.173Z,1022.79
2016-04-20T12:15:38.190Z,1022.74
2016-04-20T12:16:38.177Z,1022.73
2016-04-20T12:17:38.087Z,1022.73
2016-04-20T12:18:38.090Z,1022.72
2016-04-20T12:19:38.061Z,1022.75
2016-04-20T12:20:38.032Z,1022.72
2016-04-20T12:21:38.019Z,1022.72
2016-04-20T12:22:37.991Z,1022.68
2016-04-20T12:23:37.978Z,1022.69
2016-04-20T12:24:37.980Z,1022.68
2016-04-20T12:25:37.920Z,1022.67
2016-04-20T12:26:37.907Z,1022.72
2016-04-20T12:27:37.879Z,1022.71
2016-04-20T12:28:37.850Z,1022.66
2016-04-20T12:29:37.822Z,1022.67
2016-04-20T12:30:37.918Z,1022.71
2016-04-20T12:31:37.781Z,1022.7
2016-04-20T12:32:37.767Z,1022.71
2016-04-20T12:33:37.738Z,1022.71
2016-04-20T12:34:37.866Z,1022.68
2016-04-20T12:35:37.729Z,1022.75
2016-04-20T12:36:37.685Z,1022.7
2016-04-20T12:37:37.672Z,1022.69
2016-04-20T12:38:37.643Z,1022.73
2016-04-20T12:39:37.615Z,1022.76
2016-04-20T12:40:37.571Z,1022.73
2016-04-20T12:41:37.589Z,1022.72
2016-04-20T12:42:37.591Z,1022.7
2016-04-20T12:43:37.547Z,1022.68
2016-04-20T12:44:37.565Z,1022.67
2016-04-20T12:45:37.474Z,1022.61
2016-04-20T12:46:37.790Z,1022.61
2016-04-20T12:47:37.418Z,1022.62
2016-04-20T12:48:37.420Z,1022.6
2016-04-20T12:49:37.517Z,1022.57
2016-04-20T12:50:37.362Z,1022.57
2016-04-20T12:51:37.334Z,1022.54
2016-04-20T12:52:37.400Z,1022.54
2016-04-20T12:53:37.292Z,1022.48
2016-04-20T12:54:37.280Z,1022.51
2016-04-20T12:55:37.267Z,1022.54
2016-04-20T12:56:37.270Z,1022.58
2016-04-20T12:57:37.272Z,1022.58
2016-04-20T12:58:37.181Z,1022.52
2016-04-20T12:59:37.153Z,1022.58
2016-04-20T13:00:37.218Z,1022.53
2016-04-20T13:02:37.082Z,1022.53
2016-04-20T13:03:37.070Z,1022.55
2016-04-20T13:04:37.057Z,1022.52
2016-04-20T13:05:37.044Z,1022.56
2016-04-20T13:06:37.140Z,1022.53
2016-04-20T13:07:37.033Z,1022.5
2016-04-20T13:08:36.958Z,1022.52
2016-04-20T13:09:36.946Z,1022.5
2016-04-20T13:10:36.932Z,1022.5
2016-04-20T13:11:36.887Z,1022.49
2016-04-20T13:12:37.062Z,1022.47
2016-04-20T13:13:36.831Z,1022.47
2016-04-20T13:14:36.834Z,1022.46
2016-04-20T13:15:36.821Z,1022.45
2016-04-20T13:16:36.776Z,1022.48
2016-04-20T13:17:36.748Z,1022.44
2016-04-20T13:18:36.735Z,1022.45
2016-04-20T13:19:36.784Z,1022.48
2016-04-20T13:20:36.678Z,1022.47
2016-04-20T13:21:36.993Z,1022.46
2016-04-20T13:22:36.636Z,1022.43
2016-04-20T13:23:36.623Z,1022.45
2016-04-20T13:24:36.594Z,1022.44
2016-04-20T13:25:36.581Z,1022.45
2016-04-20T13:26:36.553Z,1022.44
2016-04-20T13:27:36.509Z,1022.36
2016-04-20T13:28:36.856Z,1022.37
2016-04-20T13:29:36.499Z,1022.39
2016-04-20T13:30:36.517Z,1022.39
2016-04-20T13:31:36.441Z,1022.38
2016-04-20T13:32:36.430Z,1022.32
2016-04-20T13:33:36.385Z,1022.35
2016-04-20T13:34:36.372Z,1022.36
2016-04-20T13:35:36.343Z,1022.33
2016-04-20T13:36:36.315Z,1022.3
2016-04-20T13:37:36.317Z,1022.29
2016-04-20T13:38:36.305Z,1022.3
2016-04-20T13:39:36.276Z,1022.31
2016-04-20T13:40:36.247Z,1022.29
2016-04-20T13:41:36.250Z,1022.3
2016-04-20T13:42:36.221Z,1022.31
2016-04-20T13:43:36.176Z,1022.29
2016-04-20T13:44:36.165Z,1022.3
2016-04-20T13:45:36.339Z,1022.25
2016-04-20T13:46:36.123Z,1022.26
2016-04-20T13:47:36.109Z,1022.32
2016-04-20T13:48:36.082Z,1022.31
2016-04-20T13:49:36.131Z,1022.3
2016-04-20T13:50:36.181Z,1022.32
2016-04-20T13:51:36.042Z,1022.29
2016-04-20T13:52:36.405Z,1022.3
2016-04-20T13:53:36.048Z,1022.31
2016-04-20T13:54:36.019Z,1022.35
2016-04-20T13:55:35.928Z,1022.33
2016-04-20T13:56:35.931Z,1022.33
2016-04-20T13:57:35.902Z,1022.33
2016-04-20T13:58:35.906Z,1022.33
2016-04-20T13:59:35.955Z,1022.26
2016-04-20T14:00:35.880Z,1022.3
2016-04-20T14:01:35.836Z,1022.31
2016-04-20T14:02:35.822Z,1022.32
2016-04-20T14:03:35.825Z,1022.3
2016-04-20T14:04:35.765Z,1022.28
2016-04-20T14:05:35.799Z,1022.27
2016-04-20T14:06:35.770Z,1022.26
2016-04-20T14:07:35.727Z,1022.26
2016-04-20T14:08:35.729Z,1022.22
2016-04-20T14:09:35.700Z,1022.24
2016-04-20T14:10:35.750Z,1022.24
2016-04-20T14:11:35.737Z,1022.18
2016-04-20T14:12:35.677Z,1022.17
2016-04-20T14:13:35.680Z,1022.19
2016-04-20T14:14:35.652Z,1022.18
2016-04-20T14:15:35.638Z,1022.21
2016-04-20T14:16:35.609Z,1022.19
2016-04-20T14:17:35.581Z,1022.18
2016-04-20T14:18:35.584Z,1022.21
2016-04-20T14:19:35.571Z,1022.21
2016-04-20T14:20:35.590Z,1022.16
2016-04-20T14:21:35.529Z,1022.19
2016-04-20T14:22:35.518Z,1022.13
2016-04-20T14:23:35.535Z,1022.13
2016-04-20T14:24:35.507Z,1022.09
2016-04-20T14:25:35.510Z,1022
2016-04-20T14:26:35.482Z,1022.04
2016-04-20T14:27:35.468Z,1022.01
2016-04-20T14:28:35.471Z,1022.02
2016-04-20T14:29:35.505Z,1022
2016-04-20T14:30:35.962Z,1021.98
2016-04-20T14:31:36.042Z,1021.97
2016-04-20T14:32:35.419Z,1021.94
2016-04-20T14:33:35.406Z,1021.96
2016-04-20T14:34:35.393Z,1021.95
2016-04-20T14:35:35.365Z,1021.96
2016-04-20T14:36:35.398Z,1022
2016-04-20T14:37:35.448Z,1021.95
2016-04-20T14:38:35.389Z,1021.96
2016-04-20T14:39:35.329Z,1021.93
2016-04-20T14:40:35.316Z,1021.92
2016-04-20T14:41:35.303Z,1021.9
2016-04-20T14:42:35.290Z,1021.93
2016-04-20T14:43:35.355Z,1021.87
2016-04-20T14:44:35.499Z,1021.91
2016-04-20T14:45:35.298Z,1021.88
2016-04-20T14:46:35.270Z,1021.87
2016-04-20T14:47:35.241Z,1021.86
2016-04-20T14:48:35.260Z,1021.85
2016-04-20T14:49:35.231Z,1021.86
2016-04-20T14:50:35.280Z,1021.87
2016-04-20T14:51:35.424Z,1021.88
2016-04-20T14:52:35.191Z,1021.9
2016-04-20T14:53:35.194Z,1021.89
2016-04-20T14:54:35.213Z,1021.92
2016-04-20T14:55:35.200Z,1021.88
2016-04-20T14:56:35.484Z,1021.86
2016-04-20T14:57:35.190Z,1021.89
2016-04-20T14:58:35.146Z,1021.91
2016-04-20T14:59:35.165Z,1021.87
2016-04-20T15:00:35.479Z,1021.9
2016-04-20T15:01:35.138Z,1021.89
2016-04-20T15:02:35.140Z,1021.8
2016-04-20T15:03:35.112Z,1021.82
2016-04-20T15:04:35.114Z,1021.8
2016-04-20T15:05:35.148Z,1021.77
2016-04-20T15:06:35.089Z,1021.75
2016-04-20T15:07:35.373Z,1021.79
2016-04-20T15:08:35.079Z,1021.78
2016-04-20T15:09:35.098Z,1021.72
2016-04-20T15:10:35.053Z,1021.81
2016-04-20T15:11:35.040Z,1021.79
2016-04-20T15:12:35.042Z,1021.78
2016-04-20T15:13:35.045Z,1021.74
2016-04-20T15:14:35.016Z,1021.74
